createdAt,value
2018-07-11T06:57:28.627Z,13.70
2018-07-11T06:59:30.952Z,13.70
2018-07-11T07:01:33.049Z,13.70
2018-07-11T07:05:37.353Z,13.80
2018-07-11T07:07:39.467Z,13.80
2018-07-11T07:09:41.577Z,13.80
2018-07-11T07:11:43.659Z,13.80
2018-07-11T07:13:45.793Z,13.80
2018-07-11T07:15:47.954Z,13.80
2018-07-11T07:17:50.119Z,13.80
2018-07-11T07:19:52.239Z,13.80
2018-07-11T07:21:54.422Z,13.90
2018-07-11T07:23:56.534Z,14.00
2018-07-11T07:25:58.650Z,14.00
2018-07-11T07:28:00.866Z,14.00
2018-07-11T07:30:02.978Z,13.90
2018-07-11T07:32:05.101Z,14.00
2018-07-11T07:34:07.221Z,14.00
2018-07-11T07:36:09.369Z,14.00
2018-07-11T07:38:11.614Z,14.00
2018-07-11T07:40:13.910Z,14.10
2018-07-11T07:42:15.986Z,14.10
2018-07-11T07:44:18.108Z,14.10
2018-07-11T07:46:20.213Z,14.10
2018-07-11T07:48:22.272Z,14.00
2018-07-11T07:50:24.367Z,14.10
2018-07-11T07:52:26.453Z,14.00
2018-07-11T07:54:28.697Z,13.90
2018-07-11T07:56:30.785Z,13.80
2018-07-11T07:58:32.889Z,13.90
2018-07-11T08:00:35.164Z,13.90
2018-07-11T08:02:37.214Z,13.90
2018-07-11T08:04:39.376Z,13.90
2018-07-11T08:06:41.544Z,13.90
2018-07-11T08:08:43.665Z,13.90
2018-07-11T08:10:45.746Z,13.90
2018-07-11T08:12:47.831Z,13.90
2018-07-11T08:14:49.949Z,13.90
2018-07-11T08:16:52.014Z,13.90
2018-07-11T08:18:54.118Z,13.80
2018-07-11T08:20:56.181Z,13.90
2018-07-11T08:23:21.133Z,13.90
2018-07-11T08:25:34.897Z,14.00
2018-07-11T08:27:48.721Z,14.00
2018-07-11T08:30:02.315Z,14.00
2018-07-11T08:32:44.697Z,14.10
2018-07-11T08:35:04.150Z,14.10
2018-07-11T08:37:23.456Z,14.20
2018-07-11T08:43:49.913Z,14.20
2018-07-11T08:47:02.022Z,14.20
2018-07-11T08:49:15.778Z,14.20
2018-07-11T08:53:34.101Z,14.30
2018-07-11T08:57:16.437Z,14.30
2018-07-11T09:00:37.839Z,14.30
2018-07-11T09:03:53.768Z,14.30
2018-07-11T09:06:11.186Z,14.40
2018-07-11T09:08:39.618Z,14.40
2018-07-11T09:11:49.533Z,14.50
2018-07-11T09:14:05.885Z,14.50
2018-07-11T09:16:19.447Z,14.60
2018-07-11T09:20:42.208Z,14.60
2018-07-11T09:24:52.256Z,14.70
2018-07-11T09:26:54.337Z,14.60
2018-07-11T09:28:56.436Z,14.60
2018-07-11T09:30:58.542Z,14.60
2018-07-11T09:33:00.669Z,14.60
2018-07-11T09:35:02.777Z,14.60
2018-07-11T09:37:04.846Z,14.60
2018-07-11T09:39:06.913Z,14.50
2018-07-11T09:41:09.084Z,14.50
2018-07-11T09:43:11.545Z,14.50
2018-07-11T09:45:13.640Z,14.50
2018-07-11T09:47:21.817Z,14.50
2018-07-11T09:49:24.864Z,14.50
2018-07-11T09:51:26.952Z,14.50
2018-07-11T09:53:29.052Z,14.50
2018-07-11T09:55:31.126Z,14.50
2018-07-11T09:57:33.212Z,14.50
2018-07-11T09:59:35.359Z,14.50
2018-07-11T10:01:37.458Z,14.60
2018-07-11T10:03:39.575Z,14.60
2018-07-11T10:05:41.642Z,14.60
2018-07-11T10:07:43.756Z,14.70
2018-07-11T10:09:45.813Z,14.80
2018-07-11T10:11:47.937Z,14.90
2018-07-11T10:13:49.994Z,14.90
2018-07-11T10:15:52.045Z,15.00
2018-07-11T10:17:54.110Z,15.00
2018-07-11T10:19:56.181Z,15.00
2018-07-11T10:21:58.257Z,15.10
2018-07-11T10:24:01.022Z,15.10
2018-07-11T10:26:03.149Z,15.20
2018-07-11T10:28:12.033Z,15.10
2018-07-11T10:30:14.163Z,15.10
2018-07-11T10:32:16.233Z,15.20
2018-07-11T10:34:18.338Z,15.20
2018-07-11T10:36:20.555Z,15.20
2018-07-11T10:38:25.322Z,15.30
2018-07-11T10:40:27.422Z,15.10
2018-07-11T10:42:29.914Z,15.10
2018-07-11T10:44:31.993Z,15.10
2018-07-11T10:46:34.194Z,15.10
2018-07-11T10:48:36.605Z,15.00
2018-07-11T10:50:38.783Z,15.10
2018-07-11T10:52:40.782Z,15.00
2018-07-11T10:54:42.865Z,15.10
2018-07-11T10:56:44.963Z,15.10
2018-07-11T10:58:47.015Z,15.10
2018-07-11T11:01:05.021Z,15.10
2018-07-11T11:02:51.134Z,15.10
2018-07-11T11:04:53.220Z,15.10
2018-07-11T11:06:55.317Z,15.10
2018-07-11T11:08:57.443Z,15.10
2018-07-11T11:11:01.053Z,15.20
2018-07-11T11:13:05.350Z,15.20
2018-07-11T11:15:07.503Z,15.30
2018-07-11T11:17:09.618Z,15.30
2018-07-11T11:19:11.691Z,15.30
2018-07-11T11:21:13.897Z,15.30
2018-07-11T11:23:16.012Z,15.30
2018-07-11T11:25:18.178Z,15.30
2018-07-11T11:27:20.265Z,15.30
2018-07-11T11:29:22.399Z,15.30
2018-07-11T11:31:24.510Z,15.30
2018-07-11T11:33:26.668Z,15.40
2018-07-11T11:35:28.853Z,15.40
2018-07-11T11:37:31.666Z,15.40
2018-07-11T11:39:34.778Z,15.50
2018-07-11T11:41:37.016Z,15.50
2018-07-11T11:43:39.082Z,15.50
2018-07-11T11:45:41.271Z,15.50
2018-07-11T11:47:43.631Z,15.50
2018-07-11T11:49:45.782Z,15.50
2018-07-11T11:51:48.022Z,15.50
2018-07-11T11:53:50.109Z,15.50
2018-07-11T11:55:52.208Z,15.60
2018-07-11T11:57:54.333Z,15.60
2018-07-11T11:59:56.558Z,15.60
2018-07-11T12:02:00.649Z,15.60
2018-07-11T12:04:02.725Z,15.70
2018-07-11T12:06:04.994Z,15.80
2018-07-11T12:08:07.073Z,15.90
2018-07-11T12:10:09.170Z,15.90
2018-07-11T12:12:11.253Z,15.90
2018-07-11T12:14:16.311Z,15.90
2018-07-11T12:16:18.419Z,16.00
2018-07-11T12:18:20.665Z,15.80
2018-07-11T12:20:22.754Z,15.80
2018-07-11T12:22:25.704Z,15.90
2018-07-11T12:24:27.792Z,16.00
2018-07-11T12:26:29.926Z,16.10
2018-07-11T12:28:32.090Z,16.10
2018-07-11T12:30:34.267Z,16.00
2018-07-11T12:32:36.317Z,16.20
2018-07-11T12:34:38.413Z,16.20
2018-07-11T12:36:41.049Z,16.20
2018-07-11T12:38:43.773Z,16.20
2018-07-11T12:40:45.977Z,16.30
2018-07-11T12:42:48.130Z,16.40
2018-07-11T12:44:50.256Z,16.50
2018-07-11T12:46:52.370Z,16.50
2018-07-11T12:49:00.442Z,16.70
2018-07-11T12:51:02.518Z,16.90
2018-07-11T12:53:05.253Z,16.90
2018-07-11T12:55:07.421Z,16.90
2018-07-11T12:57:10.053Z,17.00
2018-07-11T12:59:12.238Z,17.10
2018-07-11T13:01:14.382Z,17.20
2018-07-11T13:03:16.570Z,17.20
2018-07-11T13:05:19.398Z,17.30
2018-07-11T13:07:21.571Z,17.50
2018-07-11T13:09:23.729Z,17.70
2018-07-11T13:11:25.882Z,17.80
2018-07-11T13:13:28.110Z,17.80
2018-07-11T13:15:30.326Z,18.10
2018-07-11T13:17:32.463Z,18.30
2018-07-11T13:19:34.637Z,18.20
2018-07-11T13:21:36.796Z,18.00
2018-07-11T13:23:38.974Z,17.90
2018-07-11T13:25:41.963Z,17.80
2018-07-11T13:27:44.100Z,17.90
2018-07-11T13:29:46.225Z,17.80
2018-07-11T13:31:48.427Z,17.80
2018-07-11T13:33:50.591Z,17.70
2018-07-11T13:35:52.766Z,17.70
2018-07-11T13:37:54.930Z,17.60
2018-07-11T13:39:57.118Z,17.70
2018-07-11T13:41:59.310Z,17.70
2018-07-11T13:44:01.554Z,17.70
2018-07-11T13:46:03.762Z,17.80
2018-07-11T13:48:06.122Z,17.80
2018-07-11T13:50:08.326Z,17.90
2018-07-11T13:52:10.887Z,18.00
2018-07-11T13:54:13.071Z,18.10
2018-07-11T13:56:15.280Z,18.20
2018-07-11T13:58:17.448Z,18.30
2018-07-11T14:00:19.687Z,18.20
2018-07-11T14:02:21.875Z,18.20
2018-07-11T14:04:24.134Z,18.30
2018-07-11T14:06:26.354Z,18.40
2018-07-11T14:08:28.562Z,18.40
2018-07-11T14:10:30.878Z,18.40
2018-07-11T14:12:33.072Z,18.40
2018-07-11T14:14:35.218Z,18.30
2018-07-11T14:16:37.405Z,18.20
2018-07-11T14:18:39.493Z,18.20
2018-07-11T14:20:41.637Z,18.20
2018-07-11T14:22:45.951Z,18.20
2018-07-11T14:24:48.119Z,18.30
2018-07-11T14:26:50.275Z,18.30
2018-07-11T14:28:53.582Z,18.30
2018-07-11T14:30:55.694Z,18.40
2018-07-11T14:33:04.361Z,18.40
2018-07-11T14:35:06.490Z,18.60
2018-07-11T14:37:08.682Z,18.60
2018-07-11T14:39:10.872Z,18.50
2018-07-11T14:41:12.969Z,18.60
2018-07-11T14:43:15.124Z,18.70
2018-07-11T14:45:17.382Z,18.70
2018-07-11T14:47:25.178Z,18.70
2018-07-11T14:51:29.807Z,18.70
2018-07-11T14:53:31.941Z,18.60
2018-07-11T14:55:34.189Z,18.50
2018-07-11T14:57:36.563Z,18.50
2018-07-11T14:59:39.750Z,18.60
2018-07-11T15:01:41.862Z,18.60
2018-07-11T15:03:44.027Z,18.50
2018-07-11T15:05:46.142Z,18.50
2018-07-11T15:07:51.899Z,18.50
2018-07-11T15:09:54.187Z,18.60
2018-07-11T15:11:56.368Z,18.60
2018-07-11T15:13:58.530Z,18.50
2018-07-11T15:16:00.747Z,18.60
2018-07-11T15:18:02.922Z,18.50
2018-07-11T15:20:05.128Z,18.60
2018-07-11T15:22:07.310Z,18.50
2018-07-11T15:24:09.490Z,18.50
2018-07-11T15:26:12.086Z,18.40
2018-07-11T15:28:14.242Z,18.50
2018-07-11T15:30:16.383Z,18.40
2018-07-11T15:32:18.537Z,18.40
2018-07-11T15:34:20.726Z,18.40
2018-07-11T15:36:22.937Z,18.40
2018-07-11T15:38:25.684Z,18.30
2018-07-11T15:40:28.938Z,18.30
2018-07-11T15:42:31.117Z,18.30
2018-07-11T15:44:33.286Z,18.30
2018-07-11T15:46:35.873Z,18.30
2018-07-11T15:48:38.071Z,18.20
2018-07-11T15:50:40.745Z,18.30
2018-07-11T15:52:46.758Z,18.30
2018-07-11T15:54:49.922Z,18.30
2018-07-11T15:56:52.364Z,18.30
2018-07-11T15:59:02.932Z,18.30
2018-07-11T16:01:08.735Z,18.20
2018-07-11T16:03:12.125Z,18.20
2018-07-11T16:05:17.951Z,18.20
2018-07-11T16:07:20.029Z,18.20
2018-07-11T16:09:22.182Z,18.30
2018-07-11T16:11:24.350Z,18.30
2018-07-11T16:13:26.622Z,18.30
2018-07-11T16:15:28.756Z,18.30
2018-07-11T16:17:30.935Z,18.40
2018-07-11T16:19:33.154Z,18.40
2018-07-11T16:21:35.262Z,18.40
2018-07-11T16:23:37.586Z,18.40
2018-07-11T16:25:40.986Z,18.50
2018-07-11T16:27:43.204Z,18.40
2018-07-11T16:29:45.380Z,18.50
2018-07-11T16:31:47.633Z,18.50
2018-07-11T16:33:49.820Z,18.50
2018-07-11T16:35:52.036Z,18.50
2018-07-11T16:37:54.332Z,18.50
2018-07-11T16:39:56.602Z,18.50
2018-07-11T16:41:58.865Z,18.50
2018-07-11T16:44:01.186Z,18.40
2018-07-11T16:46:03.510Z,18.40
2018-07-11T16:48:05.678Z,18.30
2018-07-11T16:50:07.901Z,18.30
2018-07-11T16:52:10.410Z,18.30
2018-07-11T16:54:13.086Z,18.20
2018-07-11T16:56:15.254Z,18.20
2018-07-11T16:58:22.383Z,18.10
2018-07-11T17:00:27.270Z,18.10
2018-07-11T17:02:29.482Z,18.00
2018-07-11T17:04:32.935Z,18.00
2018-07-11T17:06:36.138Z,18.00
2018-07-11T17:08:42.715Z,18.00
2018-07-11T17:10:45.233Z,18.00
2018-07-11T17:12:54.278Z,17.90
2018-07-11T17:14:57.640Z,17.90
2018-07-11T17:17:01.419Z,17.90
2018-07-11T17:19:07.154Z,17.90
2018-07-11T17:21:10.022Z,17.90
2018-07-11T17:23:12.177Z,17.90
2018-07-11T17:25:14.308Z,17.80
2018-07-11T17:27:21.330Z,17.80
2018-07-11T17:29:26.270Z,17.80
2018-07-11T17:31:28.820Z,17.80
2018-07-11T17:33:30.912Z,17.70
2018-07-11T17:35:33.322Z,17.70
2018-07-11T17:37:36.481Z,17.70
2018-07-11T17:39:48.515Z,17.70
2018-07-11T17:41:50.790Z,17.70
2018-07-11T17:43:52.858Z,17.60
2018-07-11T17:45:54.914Z,17.60
2018-07-11T17:50:13.454Z,17.60
2018-07-11T17:52:15.532Z,17.60
2018-07-11T17:54:17.700Z,17.60
2018-07-11T17:56:20.682Z,17.60
2018-07-11T17:58:34.049Z,17.60
2018-07-11T18:00:54.617Z,17.60
2018-07-11T18:03:05.865Z,17.50
2018-07-11T18:05:17.996Z,17.50
2018-07-11T18:07:26.717Z,17.60
2018-07-11T18:10:09.173Z,17.60
2018-07-11T18:12:16.111Z,17.60
2018-07-11T18:14:28.117Z,17.60
2018-07-11T18:16:39.773Z,17.60
2018-07-11T18:18:53.640Z,17.70
2018-07-11T18:21:16.051Z,17.60
2018-07-11T18:24:29.104Z,17.60
2018-07-11T18:26:44.597Z,17.60
2018-07-11T18:28:54.109Z,17.50
2018-07-11T18:31:04.220Z,17.50
2018-07-11T18:33:18.674Z,17.50
2018-07-11T18:35:38.963Z,17.40
2018-07-11T18:37:48.010Z,17.40
2018-07-11T18:39:56.806Z,17.40
2018-07-11T18:42:12.192Z,17.30
2018-07-11T18:44:24.278Z,17.30
2018-07-11T18:47:19.410Z,17.20
2018-07-11T18:49:33.501Z,17.20
2018-07-11T18:51:47.898Z,17.20
2018-07-11T18:53:56.149Z,17.10
2018-07-11T18:56:05.243Z,17.10
2018-07-11T18:58:15.972Z,17.10
2018-07-11T19:00:29.560Z,17.00
2018-07-11T19:03:15.518Z,17.00
2018-07-11T19:05:26.797Z,16.90
2018-07-11T19:07:44.422Z,16.80
2018-07-11T19:09:52.036Z,16.80
2018-07-11T19:11:55.634Z,16.70
2018-07-11T19:14:03.535Z,16.70
2018-07-11T19:17:19.271Z,16.60
2018-07-11T19:19:31.265Z,16.60
2018-07-11T19:21:45.512Z,16.50
2018-07-11T19:23:59.361Z,16.50
2018-07-11T19:26:11.652Z,16.50
2018-07-11T19:28:23.425Z,16.40
2018-07-11T19:30:35.545Z,16.40
2018-07-11T19:32:50.093Z,16.30
2018-07-11T19:37:05.393Z,16.30
2018-07-11T19:39:17.797Z,16.30
2018-07-11T19:41:30.145Z,16.20
2018-07-11T19:43:46.594Z,16.20
2018-07-11T19:46:01.447Z,16.10
2018-07-11T19:50:17.594Z,16.10
2018-07-11T19:52:31.210Z,16.10
2018-07-11T19:54:47.368Z,16.10
2018-07-11T19:56:49.544Z,16.10
2018-07-11T19:58:51.659Z,16.00
2018-07-11T20:00:53.838Z,16.10
2018-07-11T20:02:55.945Z,16.10
2018-07-11T20:04:58.220Z,16.10
2018-07-11T20:07:00.354Z,16.10
2018-07-11T20:09:03.633Z,16.10
2018-07-11T20:11:06.142Z,16.10
2018-07-11T20:13:08.292Z,16.10
2018-07-11T20:15:10.466Z,16.00
2018-07-11T20:17:12.620Z,16.00
2018-07-11T20:19:14.857Z,16.00
2018-07-11T20:21:17.060Z,15.90
2018-07-11T20:23:19.192Z,15.90
2018-07-11T20:25:21.301Z,15.90
2018-07-11T20:27:23.432Z,15.80
2018-07-11T20:29:25.530Z,15.80
2018-07-11T20:31:27.685Z,15.80
2018-07-11T20:33:29.850Z,15.70
2018-07-11T20:35:31.950Z,15.70
2018-07-11T20:37:36.101Z,15.70
2018-07-11T20:39:38.223Z,15.70
2018-07-11T20:41:40.765Z,15.60
2018-07-11T20:43:43.007Z,15.60
2018-07-11T20:45:45.125Z,15.60
2018-07-11T20:47:47.254Z,15.60
2018-07-11T20:49:49.417Z,15.60
2018-07-11T20:51:51.677Z,15.50
2018-07-11T20:53:53.814Z,15.50
2018-07-11T20:55:56.413Z,15.50
2018-07-11T20:58:10.140Z,15.50
2018-07-11T21:01:24.713Z,15.40
2018-07-11T21:05:40.658Z,15.40
2018-07-11T21:07:54.508Z,15.40
2018-07-11T21:10:20.860Z,15.10
2018-07-11T21:12:34.570Z,15.00
2018-07-11T21:14:49.055Z,15.00
2018-07-11T21:18:04.969Z,15.00
2018-07-11T21:20:07.130Z,15.00
2018-07-11T21:22:09.273Z,14.90
2018-07-11T21:24:12.078Z,14.90
2018-07-11T21:26:14.157Z,14.90
2018-07-11T21:28:16.349Z,14.90
2018-07-11T21:30:18.467Z,14.90
2018-07-11T21:32:20.625Z,14.90
2018-07-11T21:34:22.741Z,14.90
2018-07-11T21:36:24.881Z,14.90
2018-07-11T21:38:27.006Z,14.90
2018-07-11T21:40:29.235Z,14.90
2018-07-11T21:42:31.337Z,14.80
2018-07-11T21:44:33.446Z,14.70
2018-07-11T21:46:35.625Z,14.70
2018-07-11T21:48:37.715Z,14.80
2018-07-11T21:50:39.838Z,14.80
2018-07-11T21:52:41.969Z,14.80
2018-07-11T21:54:44.062Z,14.90
2018-07-11T21:58:49.069Z,14.90
2018-07-11T22:00:51.129Z,15.00
2018-07-11T22:02:53.257Z,15.00
2018-07-11T22:04:55.361Z,15.00
2018-07-11T22:06:57.458Z,15.00
2018-07-11T22:08:59.591Z,15.00
2018-07-11T22:11:01.738Z,15.10
2018-07-11T22:13:04.301Z,15.20
2018-07-11T22:15:06.422Z,15.20
2018-07-11T22:17:20.514Z,15.20
2018-07-11T22:19:33.893Z,15.30
2018-07-11T22:21:35.118Z,15.30
2018-07-11T22:23:36.377Z,15.40
2018-07-11T22:25:37.612Z,15.40
2018-07-11T22:27:38.892Z,15.40
2018-07-11T22:29:40.140Z,15.40
2018-07-11T22:31:41.403Z,15.50
2018-07-11T22:33:42.670Z,15.50
2018-07-11T22:35:43.922Z,15.50
2018-07-11T22:37:45.445Z,15.50
2018-07-11T22:39:46.697Z,15.60
2018-07-11T22:41:47.926Z,15.60
2018-07-11T22:43:49.147Z,15.60
2018-07-11T22:45:50.379Z,15.60
2018-07-11T22:47:51.616Z,15.60
2018-07-11T22:49:57.818Z,15.60
2018-07-11T22:51:59.053Z,15.70
2018-07-11T22:54:00.309Z,15.70
2018-07-11T22:56:01.565Z,15.70
2018-07-11T22:58:02.811Z,15.70
2018-07-11T23:00:04.050Z,15.80
2018-07-11T23:02:05.420Z,15.80
2018-07-11T23:04:06.681Z,15.80
2018-07-11T23:06:07.914Z,15.80
2018-07-11T23:08:09.188Z,15.80
2018-07-11T23:10:10.471Z,15.80
2018-07-11T23:12:11.729Z,15.80
2018-07-11T23:14:13.017Z,15.80
2018-07-11T23:16:14.453Z,15.80
2018-07-11T23:18:15.701Z,15.80
2018-07-11T23:20:19.002Z,15.80
2018-07-11T23:22:20.461Z,15.80
2018-07-11T23:24:21.946Z,15.80
2018-07-11T23:26:23.266Z,15.80
2018-07-11T23:28:24.899Z,15.80
2018-07-11T23:30:26.184Z,15.70
2018-07-11T23:32:31.474Z,15.80
2018-07-11T23:34:32.816Z,15.80
2018-07-11T23:36:34.070Z,15.80
2018-07-11T23:38:35.379Z,15.80
2018-07-11T23:40:36.558Z,15.80
2018-07-11T23:42:37.806Z,15.80
2018-07-11T23:44:41.304Z,15.80
2018-07-11T23:46:42.919Z,15.80
2018-07-11T23:48:44.193Z,15.80
2018-07-11T23:50:48.760Z,15.80
2018-07-11T23:52:50.064Z,15.80
2018-07-11T23:54:51.310Z,15.80
2018-07-11T23:56:53.155Z,15.80
2018-07-11T23:58:55.278Z,15.80
